createdAt,value
2018-07-25T00:00:56.734Z,23.00
2018-07-25T00:03:26.110Z,23.00
2018-07-25T00:05:55.537Z,22.90
2018-07-25T00:08:24.945Z,23.00
2018-07-25T00:10:55.188Z,22.90
2018-07-25T00:13:27.675Z,22.90
2018-07-25T00:15:57.291Z,22.90
2018-07-25T00:18:26.882Z,22.80
2018-07-25T00:20:56.354Z,22.80
2018-07-25T00:23:25.709Z,22.80
2018-07-25T00:25:55.179Z,22.80
2018-07-25T00:28:24.560Z,22.70
2018-07-25T00:30:54.075Z,22.70
2018-07-25T00:33:24.102Z,22.70
2018-07-25T00:35:53.532Z,22.70
2018-07-25T00:38:24.891Z,22.60
2018-07-25T00:40:54.333Z,22.60
2018-07-25T00:43:23.760Z,22.60
2018-07-25T00:45:53.215Z,22.60
2018-07-25T00:48:23.356Z,22.60
2018-07-25T00:50:52.856Z,22.60
2018-07-25T00:53:22.237Z,22.60
2018-07-25T00:55:52.396Z,22.60
2018-07-25T00:58:21.881Z,22.50
2018-07-25T01:00:51.320Z,22.50
2018-07-25T01:03:20.679Z,22.50
2018-07-25T01:05:50.167Z,22.50
2018-07-25T01:08:19.595Z,22.50
2018-07-25T01:10:49.020Z,22.50
2018-07-25T01:13:18.469Z,22.40
2018-07-25T01:15:47.915Z,22.40
2018-07-25T01:18:17.321Z,22.40
2018-07-25T01:20:46.707Z,22.40
2018-07-25T01:23:16.144Z,22.30
2018-07-25T01:25:45.493Z,22.30
2018-07-25T01:28:15.511Z,22.30
2018-07-25T01:30:44.954Z,22.20
2018-07-25T01:33:14.353Z,22.20
2018-07-25T01:35:44.580Z,22.20
2018-07-25T01:38:14.058Z,22.20
2018-07-25T01:40:43.428Z,22.20
2018-07-25T01:43:12.844Z,22.10
2018-07-25T01:45:43.136Z,22.10
2018-07-25T01:48:12.534Z,22.10
2018-07-25T01:50:41.912Z,22.10
2018-07-25T01:53:11.328Z,22.10
2018-07-25T01:55:40.710Z,22.00
2018-07-25T01:58:10.111Z,22.00
2018-07-25T02:00:39.509Z,22.00
2018-07-25T02:03:09.028Z,22.00
2018-07-25T02:05:38.741Z,22.00
2018-07-25T02:08:08.116Z,21.90
2018-07-25T02:10:43.306Z,21.90
2018-07-25T02:13:14.202Z,21.90
2018-07-25T02:15:43.591Z,21.90
2018-07-25T02:18:15.309Z,21.90
2018-07-25T02:20:44.788Z,21.90
2018-07-25T02:23:14.155Z,21.80
2018-07-25T02:25:43.533Z,21.80
2018-07-25T02:28:12.966Z,21.80
2018-07-25T02:30:42.497Z,21.80
2018-07-25T02:33:11.924Z,21.80
2018-07-25T02:35:41.295Z,21.80
2018-07-25T02:38:10.706Z,21.80
2018-07-25T02:40:40.108Z,21.80
2018-07-25T02:43:09.481Z,21.80
2018-07-25T02:45:43.921Z,21.80
2018-07-25T02:48:13.692Z,21.80
2018-07-25T02:50:43.150Z,21.60
2018-07-25T02:53:13.512Z,21.60
2018-07-25T02:55:43.514Z,21.60
2018-07-25T02:58:13.955Z,21.70
2018-07-25T03:00:44.626Z,21.70
2018-07-25T03:03:14.099Z,21.70
2018-07-25T03:05:43.516Z,21.70
2018-07-25T03:08:28.693Z,21.70
2018-07-25T03:10:58.122Z,21.60
2018-07-25T03:13:27.499Z,21.60
2018-07-25T03:16:04.028Z,21.60
2018-07-25T03:18:33.608Z,21.60
2018-07-25T03:21:03.864Z,21.60
2018-07-25T03:23:35.219Z,21.60
2018-07-25T03:26:04.788Z,21.60
2018-07-25T03:28:34.305Z,21.50
2018-07-25T03:31:04.160Z,21.50
2018-07-25T03:33:33.591Z,21.50
2018-07-25T03:36:03.000Z,21.50
2018-07-25T03:38:32.746Z,21.40
2018-07-25T03:41:02.193Z,21.40
2018-07-25T03:43:31.653Z,21.40
2018-07-25T03:46:01.250Z,21.40
2018-07-25T03:48:31.066Z,21.40
2018-07-25T03:51:00.657Z,21.40
2018-07-25T03:53:30.390Z,21.40
2018-07-25T03:56:00.919Z,21.30
2018-07-25T03:58:30.560Z,21.30
2018-07-25T04:01:00.091Z,21.30
2018-07-25T04:03:29.568Z,21.30
2018-07-25T04:06:04.366Z,21.40
2018-07-25T04:08:33.862Z,21.40
2018-07-25T04:11:04.212Z,21.40
2018-07-25T04:13:33.670Z,21.40
2018-07-25T04:16:03.541Z,21.40
2018-07-25T04:18:33.002Z,21.40
2018-07-25T04:21:03.012Z,21.40
2018-07-25T04:23:32.787Z,21.40
2018-07-25T04:26:02.187Z,21.30
2018-07-25T04:28:31.639Z,21.30
2018-07-25T04:31:01.048Z,21.30
2018-07-25T04:33:30.467Z,21.30
2018-07-25T04:36:00.261Z,21.30
2018-07-25T04:38:29.913Z,21.00
2018-07-25T04:40:59.354Z,21.10
2018-07-25T04:43:28.879Z,21.10
2018-07-25T04:45:58.385Z,21.20
2018-07-25T04:48:27.780Z,21.30
2018-07-25T04:50:57.186Z,21.40
2018-07-25T04:53:26.627Z,21.40
2018-07-25T04:55:56.180Z,21.50
2018-07-25T04:58:27.245Z,21.50
2018-07-25T05:00:57.276Z,21.50
2018-07-25T05:03:26.856Z,21.60
2018-07-25T05:05:56.279Z,21.70
2018-07-25T05:09:13.054Z,21.70
2018-07-25T05:11:54.020Z,21.80
2018-07-25T05:14:23.365Z,21.90
2018-07-25T05:16:52.979Z,21.90
2018-07-25T05:19:22.429Z,21.90
2018-07-25T05:21:53.048Z,22.00
2018-07-25T05:24:22.558Z,22.00
2018-07-25T05:26:52.487Z,22.10
2018-07-25T05:29:21.957Z,22.20
2018-07-25T05:31:51.492Z,22.20
2018-07-25T05:34:20.949Z,22.20
2018-07-25T05:36:52.013Z,22.30
2018-07-25T05:39:21.392Z,22.30
2018-07-25T05:41:50.812Z,22.40
2018-07-25T05:44:20.259Z,22.50
2018-07-25T05:46:56.041Z,22.50
2018-07-25T05:49:25.461Z,22.60
2018-07-25T05:51:56.730Z,22.60
2018-07-25T05:57:26.497Z,22.70
2018-07-25T06:00:24.312Z,22.80
2018-07-25T06:02:53.770Z,22.90
2018-07-25T06:05:27.006Z,22.90
2018-07-25T06:08:22.993Z,23.00
2018-07-25T06:10:52.334Z,23.00
2018-07-25T06:13:21.787Z,23.10
2018-07-25T06:15:51.182Z,23.10
2018-07-25T06:18:20.540Z,23.10
2018-07-25T06:20:55.939Z,23.20
2018-07-25T06:23:56.436Z,23.20
2018-07-25T06:26:25.806Z,23.20
2018-07-25T06:28:55.300Z,23.30
2018-07-25T06:31:25.467Z,23.40
2018-07-25T06:33:55.483Z,23.40
2018-07-25T06:36:25.429Z,23.40
2018-07-25T06:38:56.782Z,23.50
2018-07-25T06:41:26.420Z,23.50
2018-07-25T06:43:55.876Z,23.50
2018-07-25T06:46:26.473Z,23.60
2018-07-25T06:49:00.672Z,23.60
2018-07-25T06:51:30.102Z,23.60
2018-07-25T06:53:59.465Z,23.70
2018-07-25T06:56:29.169Z,23.70
2018-07-25T06:58:58.625Z,23.70
2018-07-25T07:01:28.796Z,23.70
2018-07-25T07:03:58.285Z,23.80
2018-07-25T07:06:27.793Z,23.80
2018-07-25T07:08:57.369Z,23.90
2018-07-25T07:11:27.030Z,23.90
2018-07-25T07:13:56.533Z,23.90
2018-07-25T07:16:26.165Z,23.90
2018-07-25T07:18:55.533Z,24.00
2018-07-25T07:21:25.311Z,24.00
2018-07-25T07:23:54.888Z,24.00
2018-07-25T07:26:24.520Z,23.90
2018-07-25T07:28:54.226Z,24.00
2018-07-25T07:31:24.202Z,24.00
2018-07-25T07:33:53.751Z,24.10
2018-07-25T07:36:23.355Z,24.20
2018-07-25T07:38:52.994Z,24.30
2018-07-25T07:41:22.702Z,24.30
2018-07-25T07:43:52.198Z,24.40
2018-07-25T07:46:21.603Z,24.50
2018-07-25T07:48:50.976Z,24.50
2018-07-25T07:51:20.404Z,24.60
2018-07-25T07:53:49.886Z,24.60
2018-07-25T07:56:19.315Z,24.70
2018-07-25T07:58:48.822Z,24.70
2018-07-25T08:01:18.240Z,24.80
2018-07-25T08:03:47.670Z,24.80
2018-07-25T08:06:17.109Z,24.90
2018-07-25T08:08:46.649Z,24.90
2018-07-25T08:11:19.204Z,25.00
2018-07-25T08:13:49.999Z,25.00
2018-07-25T08:16:19.435Z,25.10
2018-07-25T08:18:48.909Z,25.10
2018-07-25T08:21:18.362Z,25.20
2018-07-25T08:23:47.821Z,25.20
2018-07-25T08:26:17.274Z,25.20
2018-07-25T08:28:46.722Z,25.30
2018-07-25T08:31:16.157Z,25.30
2018-07-25T08:33:45.734Z,25.40
2018-07-25T08:36:15.359Z,25.40
2018-07-25T08:38:45.203Z,25.40
2018-07-25T08:41:14.671Z,25.50
2018-07-25T08:43:44.144Z,25.50
2018-07-25T08:46:13.783Z,25.50
2018-07-25T08:48:43.206Z,25.60
2018-07-25T08:51:12.669Z,25.60
2018-07-25T08:53:42.217Z,25.60
2018-07-25T08:56:11.666Z,25.70
2018-07-25T08:58:41.187Z,25.70
2018-07-25T09:01:10.713Z,25.70
2018-07-25T09:03:40.216Z,25.80
2018-07-25T09:06:09.722Z,25.80
2018-07-25T09:08:39.159Z,25.80
2018-07-25T09:11:08.671Z,25.90
2018-07-25T09:13:38.133Z,25.90
2018-07-25T09:16:07.628Z,26.00
2018-07-25T09:18:37.038Z,26.00
2018-07-25T09:21:06.658Z,26.00
2018-07-25T09:23:36.064Z,26.10
2018-07-25T09:26:05.774Z,26.10
2018-07-25T09:28:35.319Z,26.10
2018-07-25T09:31:04.855Z,26.10
2018-07-25T09:33:34.329Z,26.20
2018-07-25T09:36:03.750Z,26.20
2018-07-25T09:38:33.218Z,26.20
2018-07-25T09:41:02.673Z,26.30
2018-07-25T09:43:32.137Z,26.30
2018-07-25T09:46:01.609Z,26.30
2018-07-25T09:48:31.313Z,26.40
2018-07-25T09:51:01.089Z,26.40
2018-07-25T09:53:31.269Z,26.40
2018-07-25T09:56:00.898Z,26.40
2018-07-25T09:58:30.394Z,26.40
2018-07-25T10:00:59.941Z,26.50
2018-07-25T10:03:29.438Z,26.50
2018-07-25T10:05:58.960Z,26.50
2018-07-25T10:08:28.456Z,26.60
2018-07-25T10:10:57.995Z,26.60
2018-07-25T10:13:27.498Z,26.60
2018-07-25T10:15:57.048Z,26.60
2018-07-25T10:18:26.589Z,26.60
2018-07-25T10:20:56.223Z,26.60
2018-07-25T10:23:25.770Z,26.60
2018-07-25T10:25:55.278Z,26.60
2018-07-25T10:28:25.024Z,26.60
2018-07-25T10:30:54.549Z,26.60
2018-07-25T10:33:24.144Z,26.60
2018-07-25T10:35:53.882Z,26.60
2018-07-25T10:38:23.581Z,26.60
2018-07-25T10:40:53.350Z,26.60
2018-07-25T10:43:23.002Z,26.60
2018-07-25T10:45:52.692Z,26.60
2018-07-25T10:48:22.168Z,26.70
2018-07-25T10:50:51.647Z,26.70
2018-07-25T10:53:21.189Z,26.70
2018-07-25T10:55:50.891Z,26.70
2018-07-25T10:58:20.343Z,26.70
2018-07-25T11:00:49.804Z,26.70
2018-07-25T11:03:19.509Z,26.70
2018-07-25T11:05:49.674Z,26.70
2018-07-25T11:08:19.119Z,26.70
2018-07-25T11:10:48.472Z,26.70
2018-07-25T11:13:17.839Z,26.70
2018-07-25T11:15:47.337Z,26.70
2018-07-25T11:18:17.040Z,26.70
2018-07-25T11:20:46.473Z,26.70
2018-07-25T11:23:15.849Z,26.70
2018-07-25T11:25:45.244Z,26.70
2018-07-25T11:28:14.626Z,26.70
2018-07-25T11:30:44.024Z,26.70
2018-07-25T11:33:13.394Z,26.70
2018-07-25T11:35:42.754Z,26.70
2018-07-25T11:38:12.255Z,26.70
2018-07-25T11:40:41.642Z,26.70
2018-07-25T11:43:10.983Z,26.70
2018-07-25T11:45:40.508Z,26.70
2018-07-25T11:48:09.885Z,26.70
2018-07-25T11:50:39.346Z,26.70
2018-07-25T11:53:08.731Z,26.80
2018-07-25T11:55:38.235Z,26.80
2018-07-25T11:58:07.558Z,26.90
2018-07-25T12:00:36.971Z,26.90
2018-07-25T12:03:06.485Z,27.00
2018-07-25T12:05:35.843Z,27.00
2018-07-25T12:08:05.385Z,27.10
2018-07-25T12:10:34.859Z,27.10
2018-07-25T12:13:04.465Z,27.20
2018-07-25T12:15:33.916Z,27.30
2018-07-25T12:18:03.333Z,27.40
2018-07-25T12:20:32.894Z,27.40
2018-07-25T12:23:02.339Z,27.40
2018-07-25T12:25:31.707Z,27.50
2018-07-25T12:28:01.153Z,27.50
2018-07-25T12:30:30.824Z,27.50
2018-07-25T12:33:00.426Z,27.50
2018-07-25T12:35:31.301Z,27.60
2018-07-25T12:38:01.095Z,27.60
2018-07-25T12:40:30.534Z,27.60
2018-07-25T12:43:00.228Z,27.60
2018-07-25T12:45:29.932Z,27.60
2018-07-25T12:47:59.423Z,27.70
2018-07-25T12:50:28.925Z,27.70
2018-07-25T12:52:58.319Z,27.70
2018-07-25T12:55:27.757Z,27.60
2018-07-25T12:57:57.205Z,27.60
2018-07-25T13:00:26.800Z,27.60
2018-07-25T13:02:56.378Z,27.60
2018-07-25T13:05:25.865Z,27.60
2018-07-25T13:07:55.362Z,27.60
2018-07-25T13:10:25.204Z,27.60
2018-07-25T13:12:57.943Z,27.30
2018-07-25T13:15:55.555Z,27.40
2018-07-25T13:18:25.033Z,27.50
2018-07-25T13:20:55.814Z,27.60
2018-07-25T13:23:25.443Z,27.60
2018-07-25T13:25:55.386Z,27.60
2018-07-25T13:28:25.114Z,27.70
2018-07-25T13:30:54.644Z,27.70
2018-07-25T13:33:25.094Z,27.70
2018-07-25T13:35:54.907Z,27.70
2018-07-25T13:38:24.399Z,27.70
2018-07-25T13:40:53.855Z,27.70
2018-07-25T13:43:23.300Z,27.80
2018-07-25T13:45:52.931Z,27.70
2018-07-25T13:48:22.586Z,27.80
2018-07-25T13:50:52.285Z,27.80
2018-07-25T13:53:21.768Z,27.80
2018-07-25T13:55:52.991Z,27.80
2018-07-25T13:58:22.408Z,27.90
2018-07-25T14:00:51.838Z,27.90
2018-07-25T14:03:21.483Z,28.00
2018-07-25T14:05:51.338Z,28.00
2018-07-25T14:08:20.753Z,28.10
2018-07-25T14:10:50.296Z,28.20
2018-07-25T14:13:19.787Z,28.20
2018-07-25T14:15:50.242Z,28.20
2018-07-25T14:18:19.772Z,28.30
2018-07-25T14:20:49.267Z,28.40
2018-07-25T14:23:18.744Z,28.40
2018-07-25T14:25:48.348Z,28.50
2018-07-25T14:28:17.826Z,28.60
2018-07-25T14:30:52.360Z,28.60
2018-07-25T14:33:22.276Z,28.60
2018-07-25T14:35:52.328Z,28.70
2018-07-25T14:38:37.000Z,28.70
2018-07-25T14:41:06.808Z,28.70
2018-07-25T14:43:36.349Z,28.80
2018-07-25T14:46:06.339Z,28.80
2018-07-25T14:48:58.181Z,28.90
2018-07-25T14:51:27.645Z,28.90
2018-07-25T14:53:57.288Z,28.90
2018-07-25T14:56:26.698Z,28.90
2018-07-25T14:58:57.043Z,28.90
2018-07-25T15:04:17.052Z,28.90
2018-07-25T15:06:46.487Z,28.90
2018-07-25T15:09:15.917Z,28.90
2018-07-25T15:11:45.379Z,28.70
2018-07-25T15:14:14.855Z,28.70
2018-07-25T15:16:44.551Z,28.60
2018-07-25T15:19:14.115Z,28.70
2018-07-25T15:21:43.769Z,28.70
2018-07-25T15:24:13.248Z,28.80
2018-07-25T15:27:42.662Z,28.90
2018-07-25T15:30:12.635Z,28.90
2018-07-25T15:32:48.996Z,28.90
2018-07-25T15:35:18.810Z,28.90
2018-07-25T15:37:48.605Z,28.90
2018-07-25T15:40:18.245Z,28.90
2018-07-25T15:42:47.991Z,28.90
2018-07-25T15:45:17.523Z,28.90
2018-07-25T15:47:47.120Z,28.90
2018-07-25T15:50:16.643Z,28.90
2018-07-25T15:52:46.258Z,28.90
2018-07-25T15:55:17.539Z,29.00
2018-07-25T15:57:47.090Z,29.00
2018-07-25T16:00:16.552Z,29.10
2018-07-25T16:02:45.946Z,29.10
2018-07-25T16:05:15.432Z,29.20
2018-07-25T16:07:45.016Z,29.20
2018-07-25T16:10:14.437Z,29.00
2018-07-25T16:12:43.978Z,29.10
2018-07-25T16:15:13.384Z,29.20
2018-07-25T16:17:42.843Z,29.30
2018-07-25T16:20:12.669Z,29.30
2018-07-25T16:22:42.114Z,29.40
2018-07-25T16:25:11.635Z,29.40
2018-07-25T16:27:41.109Z,29.40
2018-07-25T16:30:10.641Z,29.40
2018-07-25T16:32:40.277Z,29.40
2018-07-25T16:35:09.876Z,29.50
2018-07-25T16:37:39.637Z,29.40
2018-07-25T16:40:09.061Z,29.40
2018-07-25T16:42:38.554Z,29.50
2018-07-25T16:45:08.200Z,29.50
2018-07-25T16:47:37.723Z,29.50
2018-07-25T16:50:07.322Z,29.60
2018-07-25T16:52:36.877Z,29.60
2018-07-25T16:55:07.664Z,29.70
2018-07-25T16:57:37.354Z,29.70
2018-07-25T17:00:07.388Z,29.80
2018-07-25T17:02:41.009Z,29.80
2018-07-25T17:05:11.164Z,29.80
2018-07-25T17:07:46.793Z,29.80
2018-07-25T17:10:17.164Z,29.80
2018-07-25T17:12:46.659Z,29.80
2018-07-25T17:15:16.130Z,29.80
2018-07-25T17:17:45.546Z,29.70
2018-07-25T17:20:19.390Z,29.70
2018-07-25T17:22:48.788Z,29.60
2018-07-25T17:25:18.406Z,29.60
2018-07-25T17:27:47.976Z,29.50
2018-07-25T17:30:17.306Z,29.50
2018-07-25T17:32:46.738Z,29.40
2018-07-25T17:35:16.305Z,29.40
2018-07-25T17:37:45.666Z,29.30
2018-07-25T17:40:15.113Z,28.90
2018-07-25T17:42:44.595Z,29.00
2018-07-25T17:45:13.990Z,29.00
2018-07-25T17:47:43.459Z,29.00
2018-07-25T17:50:12.908Z,29.00
2018-07-25T17:52:42.343Z,29.00
2018-07-25T17:55:23.008Z,29.00
2018-07-25T17:57:52.553Z,29.00
2018-07-25T18:00:21.996Z,28.90
2018-07-25T18:02:51.496Z,28.90
2018-07-25T18:05:20.901Z,28.90
2018-07-25T18:07:51.362Z,28.90
2018-07-25T18:10:36.061Z,28.80
2018-07-25T18:13:11.133Z,28.80
2018-07-25T18:15:49.059Z,28.70
2018-07-25T18:18:18.854Z,28.70
2018-07-25T18:20:48.641Z,28.70
2018-07-25T18:23:18.138Z,28.60
2018-07-25T18:25:48.138Z,28.60
2018-07-25T18:28:18.306Z,28.50
2018-07-25T18:30:48.690Z,28.40
2018-07-25T18:33:18.377Z,28.30
2018-07-25T18:35:48.046Z,28.30
2018-07-25T18:38:17.573Z,28.20
2018-07-25T18:40:47.404Z,28.20
2018-07-25T18:43:17.325Z,28.10
2018-07-25T18:45:47.067Z,28.10
2018-07-25T18:48:18.391Z,28.00
2018-07-25T18:50:55.528Z,27.90
2018-07-25T18:53:25.514Z,27.90
2018-07-25T18:55:55.149Z,27.90
2018-07-25T18:58:25.035Z,27.80
2018-07-25T19:00:55.532Z,27.80
2018-07-25T19:03:25.681Z,27.70
2018-07-25T19:06:01.915Z,27.70
2018-07-25T19:08:31.511Z,27.60
2018-07-25T19:11:01.589Z,27.60
2018-07-25T19:13:34.909Z,27.50
2018-07-25T19:16:05.804Z,27.50
2018-07-25T19:18:35.378Z,27.50
2018-07-25T19:21:05.265Z,27.40
2018-07-25T19:23:35.161Z,27.40
2018-07-25T19:26:04.951Z,27.40
2018-07-25T19:28:34.841Z,27.40
2018-07-25T19:31:06.776Z,27.30
2018-07-25T19:33:38.495Z,27.30
2018-07-25T19:36:10.594Z,27.30
2018-07-25T19:38:41.659Z,27.20
2018-07-25T19:41:13.153Z,27.20
2018-07-25T19:43:42.834Z,27.20
2018-07-25T19:46:14.029Z,27.10
2018-07-25T19:48:45.125Z,27.00
2018-07-25T19:51:17.188Z,27.10
2018-07-25T19:53:49.268Z,27.00
2018-07-25T19:56:20.933Z,27.00
2018-07-25T19:58:53.036Z,27.00
2018-07-25T20:01:30.601Z,26.90
2018-07-25T20:04:00.593Z,26.90
2018-07-25T20:06:30.413Z,26.80
2018-07-25T20:09:00.265Z,26.80
2018-07-25T20:11:29.763Z,26.80
2018-07-25T20:14:05.053Z,26.70
2018-07-25T20:16:34.967Z,26.70
2018-07-25T20:19:04.712Z,26.60
2018-07-25T20:21:35.538Z,26.50
2018-07-25T20:24:05.116Z,26.30
2018-07-25T20:26:43.865Z,26.30
2018-07-25T20:29:14.563Z,26.20
2018-07-25T20:32:05.215Z,26.30
2018-07-25T20:34:58.065Z,26.20
2018-07-25T20:37:29.356Z,26.20
2018-07-25T20:39:59.007Z,26.20
2018-07-25T20:42:29.160Z,26.10
2018-07-25T20:44:58.834Z,26.10
2018-07-25T20:47:29.048Z,26.10
2018-07-25T20:49:59.009Z,26.00
2018-07-25T20:52:28.592Z,26.00
2018-07-25T20:54:58.245Z,25.90
2018-07-25T20:57:27.937Z,25.90
2018-07-25T20:59:57.754Z,25.80
2018-07-25T21:02:27.364Z,25.80
2018-07-25T21:04:56.969Z,25.70
2018-07-25T21:07:26.719Z,25.70
2018-07-25T21:09:56.442Z,25.60
2018-07-25T21:12:27.074Z,25.60
2018-07-25T21:14:56.714Z,25.60
2018-07-25T21:17:26.292Z,25.50
2018-07-25T21:19:56.003Z,25.50
2018-07-25T21:22:25.501Z,25.40
2018-07-25T21:24:55.179Z,25.40
2018-07-25T21:27:24.677Z,25.30
2018-07-25T21:29:54.342Z,24.90
2018-07-25T21:32:23.908Z,25.00
2018-07-25T21:34:53.597Z,25.00
2018-07-25T21:37:23.112Z,25.00
2018-07-25T21:39:52.583Z,25.10
2018-07-25T21:42:22.293Z,25.00
2018-07-25T21:44:51.921Z,25.00
2018-07-25T21:47:21.459Z,25.00
2018-07-25T21:49:51.074Z,25.00
2018-07-25T21:52:20.713Z,25.00
2018-07-25T21:54:50.193Z,24.90
2018-07-25T21:57:19.818Z,24.90
2018-07-25T21:59:49.455Z,24.90
2018-07-25T22:02:19.055Z,24.80
2018-07-25T22:04:48.904Z,24.80
2018-07-25T22:07:18.525Z,24.80
2018-07-25T22:09:48.064Z,24.80
2018-07-25T22:12:17.725Z,24.80
2018-07-25T22:14:47.290Z,24.70
2018-07-25T22:17:16.771Z,24.70
2018-07-25T22:19:46.163Z,24.70
2018-07-25T22:22:15.580Z,24.60
2018-07-25T22:24:44.990Z,24.60
2018-07-25T22:27:14.460Z,24.60
2018-07-25T22:29:43.951Z,24.60
2018-07-25T22:32:13.406Z,24.60
2018-07-25T22:34:42.912Z,24.50
2018-07-25T22:37:12.544Z,24.50
2018-07-25T22:39:42.004Z,24.50
2018-07-25T22:42:11.536Z,24.50
2018-07-25T22:44:40.976Z,24.40
2018-07-25T22:47:11.383Z,24.40
2018-07-25T22:49:40.794Z,24.40
2018-07-25T22:52:10.276Z,24.30
2018-07-25T22:54:39.844Z,24.30
2018-07-25T22:57:09.308Z,24.30
2018-07-25T22:59:38.784Z,24.30
2018-07-25T23:02:08.346Z,24.30
2018-07-25T23:04:38.036Z,24.20
2018-07-25T23:07:07.778Z,24.20
2018-07-25T23:09:37.196Z,24.20
2018-07-25T23:12:06.702Z,24.20
2018-07-25T23:14:36.216Z,24.20
2018-07-25T23:17:05.656Z,24.20
2018-07-25T23:19:35.099Z,24.10
2018-07-25T23:22:04.808Z,24.10
2018-07-25T23:24:34.457Z,24.10
2018-07-25T23:27:04.104Z,24.00
2018-07-25T23:29:33.722Z,24.00
2018-07-25T23:32:03.079Z,24.00
2018-07-25T23:34:32.516Z,24.00
2018-07-25T23:37:01.943Z,24.00
2018-07-25T23:39:31.355Z,24.00
2018-07-25T23:42:00.768Z,24.00
2018-07-25T23:44:30.183Z,23.90
2018-07-25T23:46:59.585Z,23.90
2018-07-25T23:49:28.997Z,23.90
2018-07-25T23:51:58.373Z,23.90
2018-07-25T23:54:27.764Z,23.90
2018-07-25T23:56:57.197Z,23.90
2018-07-25T23:59:26.669Z,23.80
